sensor_id;sensor_type;location;lat;lon;timestamp;pressure;altitude;pressure_sealevel;temperature;humidity
10008;BME280;5043;41.766;26.204;2023-12-20T00:00:58;101487.19;;;2.37;100.00
10008;BME280;5043;41.766;26.204;2023-12-20T00:03:23;101469.34;;;2.24;100.00
10008;BME280;5043;41.766;26.204;2023-12-20T00:05:49;101491.56;;;2.37;100.00
10008;BME280;5043;41.766;26.204;2023-12-20T00:08:15;101478.56;;;2.37;100.00
10008;BME280;5043;41.766;26.204;2023-12-20T00:10:41;101476.09;;;2.31;100.00
10008;BME280;5043;41.766;26.204;2023-12-20T00:13:07;101481.47;;;2.25;100.00
10008;BME280;5043;41.766;26.204;2023-12-20T00:15:33;101480.59;;;2.24;100.00
10008;BME280;5043;41.766;26.204;2023-12-20T00:17:59;101469.63;;;2.12;100.00
10008;BME280;5043;41.766;26.204;2023-12-20T00:20:24;101470.56;;;2.09;100.00
10008;BME280;5043;41.766;26.204;2023-12-20T00:22:50;101486.03;;;2.15;100.00
10008;BME280;5043;41.766;26.204;2023-12-20T00:25:15;101486.28;;;2.06;100.00
10008;BME280;5043;41.766;26.204;2023-12-20T00:27:41;101484.63;;;2.02;100.00
10008;BME280;5043;41.766;26.204;2023-12-20T00:30:07;101482.75;;;2.08;100.00
10008;BME280;5043;41.766;26.204;2023-12-20T00:32:33;101475.78;;;2.09;100.00
10008;BME280;5043;41.766;26.204;2023-12-20T00:34:58;101479.13;;;2.14;100.00
10008;BME280;5043;41.766;26.204;2023-12-20T00:37:23;101468.06;;;2.04;100.00
10008;BME280;5043;41.766;26.204;2023-12-20T00:39:49;101474.06;;;2.08;100.00
10008;BME280;5043;41.766;26.204;2023-12-20T00:42:14;101444.16;;;1.90;100.00
10008;BME280;5043;41.766;26.204;2023-12-20T00:44:40;101462.06;;;2.02;100.00
10008;BME280;5043;41.766;26.204;2023-12-20T00:47:05;101461.25;;;2.00;100.00
10008;BME280;5043;41.766;26.204;2023-12-20T00:49:31;101482.22;;;1.94;100.00
10008;BME280;5043;41.766;26.204;2023-12-20T00:51:56;101456.44;;;1.84;100.00
10008;BME280;5043;41.766;26.204;2023-12-20T00:54:22;101459.06;;;1.84;100.00
10008;BME280;5043;41.766;26.204;2023-12-20T00:56:47;101444.53;;;1.75;100.00
10008;BME280;5043;41.766;26.204;2023-12-20T00:59:12;101450.50;;;1.79;100.00
10008;BME280;5043;41.766;26.204;2023-12-20T01:01:38;101455.69;;;1.80;100.00
10008;BME280;5043;41.766;26.204;2023-12-20T01:04:04;101455.69;;;1.80;100.00
10008;BME280;5043;41.766;26.204;2023-12-20T01:06:29;101438.53;;;1.72;100.00
10008;BME280;5043;41.766;26.204;2023-12-20T01:08:55;101443.59;;;1.78;100.00
10008;BME280;5043;41.766;26.204;2023-12-20T01:11:20;101446.97;;;1.81;100.00
10008;BME280;5043;41.766;26.204;2023-12-20T01:13:46;101412.66;;;1.67;100.00
10008;BME280;5043;41.766;26.204;2023-12-20T01:16:11;101422.91;;;1.73;100.00
10008;BME280;5043;41.766;26.204;2023-12-20T01:18:37;101411.94;;;1.61;100.00
10008;BME280;5043;41.766;26.204;2023-12-20T01:21:04;101414.25;;;1.73;100.00
10008;BME280;5043;41.766;26.204;2023-12-20T01:23:30;101414.28;;;1.71;100.00
10008;BME280;5043;41.766;26.204;2023-12-20T01:25:56;101394.50;;;1.64;100.00
10008;BME280;5043;41.766;26.204;2023-12-20T01:28:21;101424.66;;;1.73;100.00
10008;BME280;5043;41.766;26.204;2023-12-20T01:30:47;101401.19;;;1.76;100.00
10008;BME280;5043;41.766;26.204;2023-12-20T01:33:12;101428.00;;;1.78;100.00
10008;BME280;5043;41.766;26.204;2023-12-20T01:35:38;101397.72;;;1.75;100.00
10008;BME280;5043;41.766;26.204;2023-12-20T01:38:03;101381.50;;;1.66;100.00
10008;BME280;5043;41.766;26.204;2023-12-20T01:40:29;101387.31;;;1.75;100.00
10008;BME280;5043;41.766;26.204;2023-12-20T01:43:01;101377.06;;;1.69;100.00
10008;BME280;5043;41.766;26.204;2023-12-20T01:45:27;101376.88;;;1.77;100.00
10008;BME280;5043;41.766;26.204;2023-12-20T01:47:54;101384.84;;;1.69;100.00
10008;BME280;5043;41.766;26.204;2023-12-20T01:50:21;101374.22;;;1.80;100.00
10008;BME280;5043;41.766;26.204;2023-12-20T01:52:47;101357.78;;;1.78;100.00
10008;BME280;5043;41.766;26.204;2023-12-20T01:55:13;101367.38;;;1.76;100.00
10008;BME280;5043;41.766;26.204;2023-12-20T01:57:44;101381.19;;;1.78;100.00
10008;BME280;5043;41.766;26.204;2023-12-20T02:00:11;101373.50;;;1.73;100.00
10008;BME280;5043;41.766;26.204;2023-12-20T02:02:41;101370.31;;;1.62;100.00
10008;BME280;5043;41.766;26.204;2023-12-20T02:05:07;101358.03;;;1.67;100.00
10008;BME280;5043;41.766;26.204;2023-12-20T02:07:33;101363.06;;;1.75;100.00
10008;BME280;5043;41.766;26.204;2023-12-20T02:10:00;101355.44;;;1.67;100.00
10008;BME280;5043;41.766;26.204;2023-12-20T02:12:27;101356.34;;;1.66;100.00
10008;BME280;5043;41.766;26.204;2023-12-20T02:14:52;101352.84;;;1.67;100.00
10008;BME280;5043;41.766;26.204;2023-12-20T02:17:19;101352.88;;;1.66;100.00
10008;BME280;5043;41.766;26.204;2023-12-20T02:19:45;101334.69;;;1.66;100.00
10008;BME280;5043;41.766;26.204;2023-12-20T02:22:11;101329.56;;;1.63;100.00
10008;BME280;5043;41.766;26.204;2023-12-20T02:24:37;101340.53;;;1.74;100.00
10008;BME280;5043;41.766;26.204;2023-12-20T02:27:02;101331.59;;;1.52;100.00
10008;BME280;5043;41.766;26.204;2023-12-20T02:29:28;101339.59;;;1.76;100.00
10008;BME280;5043;41.766;26.204;2023-12-20T02:31:54;101334.63;;;1.69;100.00
10008;BME280;5043;41.766;26.204;2023-12-20T02:34:19;101330.41;;;1.63;100.00
10008;BME280;5043;41.766;26.204;2023-12-20T02:36:45;101340.59;;;1.72;100.00
10008;BME280;5043;41.766;26.204;2023-12-20T02:39:10;101319.22;;;1.60;100.00
10008;BME280;5043;41.766;26.204;2023-12-20T02:41:35;101313.34;;;1.53;100.00
10008;BME280;5043;41.766;26.204;2023-12-20T02:44:02;101326.19;;;1.59;100.00
10008;BME280;5043;41.766;26.204;2023-12-20T02:46:27;101293.66;;;1.43;100.00
10008;BME280;5043;41.766;26.204;2023-12-20T02:48:52;101325.28;;;1.60;100.00
10008;BME280;5043;41.766;26.204;2023-12-20T02:51:18;101328.06;;;1.54;100.00
10008;BME280;5043;41.766;26.204;2023-12-20T02:53:43;101319.50;;;1.49;100.00
10008;BME280;5043;41.766;26.204;2023-12-20T02:56:09;101287.97;;;1.29;100.00
10008;BME280;5043;41.766;26.204;2023-12-20T02:58:35;101316.22;;;1.41;100.00
10008;BME280;5043;41.766;26.204;2023-12-20T03:01:00;101308.59;;;1.35;100.00
10008;BME280;5043;41.766;26.204;2023-12-20T03:03:26;101294.06;;;1.28;100.00
10008;BME280;5043;41.766;26.204;2023-12-20T03:05:51;101301.63;;;1.37;100.00
10008;BME280;5043;41.766;26.204;2023-12-20T03:08:16;101291.41;;;1.29;100.00
10008;BME280;5043;41.766;26.204;2023-12-20T03:10:42;101294.09;;;1.26;100.00
10008;BME280;5043;41.766;26.204;2023-12-20T03:13:07;101290.66;;;1.24;100.00
10008;BME280;5043;41.766;26.204;2023-12-20T03:15:33;101278.94;;;1.08;100.00
10008;BME280;5043;41.766;26.204;2023-12-20T03:17:58;101283.06;;;1.17;100.00
10008;BME280;5043;41.766;26.204;2023-12-20T03:20:24;101245.50;;;0.95;100.00
10008;BME280;5043;41.766;26.204;2023-12-20T03:22:51;101281.28;;;1.19;100.00
10008;BME280;5043;41.766;26.204;2023-12-20T03:25:17;101267.03;;;1.00;100.00
10008;BME280;5043;41.766;26.204;2023-12-20T03:27:42;101287.47;;;1.13;100.00
10008;BME280;5043;41.766;26.204;2023-12-20T03:30:08;101289.19;;;1.14;100.00
10008;BME280;5043;41.766;26.204;2023-12-20T03:32:34;101286.72;;;1.10;100.00
10008;BME280;5043;41.766;26.204;2023-12-20T03:34:59;101282.34;;;1.10;100.00
10008;BME280;5043;41.766;26.204;2023-12-20T03:37:25;101281.41;;;1.13;100.00
10008;BME280;5043;41.766;26.204;2023-12-20T03:39:50;101273.66;;;1.11;100.00
10008;BME280;5043;41.766;26.204;2023-12-20T03:42:15;101267.72;;;1.08;100.00
10008;BME280;5043;41.766;26.204;2023-12-20T03:44:41;101264.38;;;1.01;100.00
10008;BME280;5043;41.766;26.204;2023-12-20T03:47:07;101257.38;;;1.05;100.00
10008;BME280;5043;41.766;26.204;2023-12-20T03:49:33;101260.00;;;1.03;100.00
10008;BME280;5043;41.766;26.204;2023-12-20T03:51:58;101253.97;;;1.03;100.00
10008;BME280;5043;41.766;26.204;2023-12-20T03:54:24;101245.38;;;1.01;100.00
10008;BME280;5043;41.766;26.204;2023-12-20T03:56:49;101231.81;;;0.88;100.00
10008;BME280;5043;41.766;26.204;2023-12-20T03:59:15;101239.66;;;0.85;100.00
10008;BME280;5043;41.766;26.204;2023-12-20T04:01:44;101247.19;;;0.97;100.00
10008;BME280;5043;41.766;26.204;2023-12-20T04:04:10;101237.88;;;0.89;100.00
10008;BME280;5043;41.766;26.204;2023-12-20T04:06:36;101251.66;;;0.91;100.00
10008;BME280;5043;41.766;26.204;2023-12-20T04:09:01;101270.59;;;0.94;100.00
10008;BME280;5043;41.766;26.204;2023-12-20T04:11:28;101268.00;;;0.96;100.00
10008;BME280;5043;41.766;26.204;2023-12-20T04:13:53;101261.09;;;0.95;100.00
10008;BME280;5043;41.766;26.204;2023-12-20T04:16:19;101262.00;;;0.94;100.00
10008;BME280;5043;41.766;26.204;2023-12-20T04:18:45;101252.53;;;0.91;100.00
10008;BME280;5043;41.766;26.204;2023-12-20T04:21:10;101243.00;;;0.90;100.00
10008;BME280;5043;41.766;26.204;2023-12-20T04:23:35;101262.00;;;0.92;100.00
10008;BME280;5043;41.766;26.204;2023-12-20T04:26:01;101254.38;;;0.85;100.00
10008;BME280;5043;41.766;26.204;2023-12-20T04:28:27;101273.25;;;0.93;100.00
10008;BME280;5043;41.766;26.204;2023-12-20T04:30:55;101247.63;;;0.78;100.00
10008;BME280;5043;41.766;26.204;2023-12-20T04:33:21;101267.34;;;0.86;100.00
10008;BME280;5043;41.766;26.204;2023-12-20T04:35:47;101279.41;;;0.89;100.00
10008;BME280;5043;41.766;26.204;2023-12-20T04:38:12;101271.75;;;0.83;100.00
10008;BME280;5043;41.766;26.204;2023-12-20T04:40:38;101265.63;;;0.85;100.00
10008;BME280;5043;41.766;26.204;2023-12-20T04:43:05;101272.50;;;0.88;100.00
10008;BME280;5043;41.766;26.204;2023-12-20T04:45:31;101275.78;;;0.96;100.00
10008;BME280;5043;41.766;26.204;2023-12-20T04:47:56;101209.88;;;0.64;100.00
10008;BME280;5043;41.766;26.204;2023-12-20T04:50:22;101263.78;;;0.90;100.00
10008;BME280;5043;41.766;26.204;2023-12-20T04:52:47;101263.75;;;0.92;100.00
10008;BME280;5043;41.766;26.204;2023-12-20T04:55:13;101252.81;;;0.78;100.00
10008;BME280;5043;41.766;26.204;2023-12-20T04:57:39;101263.09;;;0.84;100.00
10008;BME280;5043;41.766;26.204;2023-12-20T05:00:05;101275.25;;;0.82;100.00
10008;BME280;5043;41.766;26.204;2023-12-20T05:02:31;101265.84;;;0.76;100.00
10008;BME280;5043;41.766;26.204;2023-12-20T05:04:56;101259.94;;;0.69;100.00
10008;BME280;5043;41.766;26.204;2023-12-20T05:07:22;101241.91;;;0.63;100.00
10008;BME280;5043;41.766;26.204;2023-12-20T05:09:47;101247.03;;;0.66;100.00
10008;BME280;5043;41.766;26.204;2023-12-20T05:12:12;101247.84;;;0.68;100.00
10008;BME280;5043;41.766;26.204;2023-12-20T05:14:38;101268.75;;;0.62;100.00
10008;BME280;5043;41.766;26.204;2023-12-20T05:17:03;101234.13;;;0.63;100.00
10008;BME280;5043;41.766;26.204;2023-12-20T05:19:29;101224.91;;;0.50;100.00
10008;BME280;5043;41.766;26.204;2023-12-20T05:21:54;101225.22;;;0.37;100.00
10008;BME280;5043;41.766;26.204;2023-12-20T05:24:20;101234.41;;;0.51;100.00
10008;BME280;5043;41.766;26.204;2023-12-20T05:26:45;101217.19;;;0.47;100.00
10008;BME280;5043;41.766;26.204;2023-12-20T05:29:11;101216.25;;;0.51;100.00
10008;BME280;5043;41.766;26.204;2023-12-20T05:31:36;101219.63;;;0.55;100.00
10008;BME280;5043;41.766;26.204;2023-12-20T05:34:02;101218.91;;;0.48;100.00
10008;BME280;5043;41.766;26.204;2023-12-20T05:36:28;101212.00;;;0.47;100.00
10008;BME280;5043;41.766;26.204;2023-12-20T05:38:53;101199.84;;;0.49;100.00
10008;BME280;5043;41.766;26.204;2023-12-20T05:41:19;101210.03;;;0.57;100.00
10008;BME280;5043;41.766;26.204;2023-12-20T05:43:44;101191.19;;;0.50;100.00
10008;BME280;5043;41.766;26.204;2023-12-20T05:46:10;101199.53;;;0.63;100.00
10008;BME280;5043;41.766;26.204;2023-12-20T05:48:37;101203.06;;;0.59;100.00
10008;BME280;5043;41.766;26.204;2023-12-20T05:51:02;101168.91;;;0.40;100.00
10008;BME280;5043;41.766;26.204;2023-12-20T05:53:28;101180.84;;;0.47;100.00
10008;BME280;5043;41.766;26.204;2023-12-20T05:55:53;101195.50;;;0.51;100.00
10008;BME280;5043;41.766;26.204;2023-12-20T05:58:19;101187.81;;;0.47;100.00
10008;BME280;5043;41.766;26.204;2023-12-20T06:00:44;101186.09;;;0.46;100.00
10008;BME280;5043;41.766;26.204;2023-12-20T06:03:10;101219.50;;;0.61;100.00
10008;BME280;5043;41.766;26.204;2023-12-20T06:05:35;101206.47;;;0.62;100.00
10008;BME280;5043;41.766;26.204;2023-12-20T06:08:00;101184.09;;;0.58;100.00
10008;BME280;5043;41.766;26.204;2023-12-20T06:10:28;101187.38;;;0.63;100.00
10008;BME280;5043;41.766;26.204;2023-12-20T06:12:54;101179.69;;;0.60;100.00
10008;BME280;5043;41.766;26.204;2023-12-20T06:15:20;101188.97;;;0.70;100.00
10008;BME280;5043;41.766;26.204;2023-12-20T06:17:46;101138.47;;;0.48;100.00
10008;BME280;5043;41.766;26.204;2023-12-20T06:20:12;101186.22;;;0.77;100.00
10008;BME280;5043;41.766;26.204;2023-12-20T06:22:38;101171.69;;;0.69;100.00
10008;BME280;5043;41.766;26.204;2023-12-20T06:25:04;101189.53;;;0.83;100.00
10008;BME280;5043;41.766;26.204;2023-12-20T06:27:30;101191.25;;;0.84;100.00
10008;BME280;5043;41.766;26.204;2023-12-20T06:29:57;101177.59;;;0.76;100.00
10008;BME280;5043;41.766;26.204;2023-12-20T06:32:23;101163.91;;;0.69;100.00
10008;BME280;5043;41.766;26.204;2023-12-20T06:34:49;101168.91;;;0.77;100.00
10008;BME280;5043;41.766;26.204;2023-12-20T06:37:15;101189.41;;;0.88;100.00
10008;BME280;5043;41.766;26.204;2023-12-20T06:39:40;101179.94;;;0.87;100.00
10008;BME280;5043;41.766;26.204;2023-12-20T06:42:06;101201.16;;;1.02;100.00
10008;BME280;5043;41.766;26.204;2023-12-20T06:44:32;101201.81;;;1.10;100.00
10008;BME280;5043;41.766;26.204;2023-12-20T06:46:57;101196.53;;;1.15;100.00
10008;BME280;5043;41.766;26.204;2023-12-20T06:49:23;101193.03;;;1.16;100.00
10008;BME280;5043;41.766;26.204;2023-12-20T06:51:49;101200.69;;;1.22;100.00
10008;BME280;5043;41.766;26.204;2023-12-20T06:54:14;101191.91;;;1.26;100.00
10008;BME280;5043;41.766;26.204;2023-12-20T06:56:40;101197.78;;;1.32;100.00
10008;BME280;5043;41.766;26.204;2023-12-20T06:59:06;101188.16;;;1.36;100.00
10008;BME280;5043;41.766;26.204;2023-12-20T07:01:31;101194.09;;;1.41;100.00
10008;BME280;5043;41.766;26.204;2023-12-20T07:03:57;101205.09;;;1.51;100.00
10008;BME280;5043;41.766;26.204;2023-12-20T07:06:22;101195.34;;;1.59;100.00
10008;BME280;5043;41.766;26.204;2023-12-20T07:08:49;101199.44;;;1.67;100.00
10008;BME280;5043;41.766;26.204;2023-12-20T07:11:14;101195.91;;;1.70;100.00
10008;BME280;5043;41.766;26.204;2023-12-20T07:13:40;101197.22;;;1.84;100.00
10008;BME280;5043;41.766;26.204;2023-12-20T07:16:05;101194.44;;;1.90;100.00
10008;BME280;5043;41.766;26.204;2023-12-20T07:18:31;101183.81;;;1.98;100.00
10008;BME280;5043;41.766;26.204;2023-12-20T07:20:57;101197.28;;;2.12;100.00
10008;BME280;5043;41.766;26.204;2023-12-20T07:23:22;101172.84;;;2.18;100.00
10008;BME280;5043;41.766;26.204;2023-12-20T07:25:48;101170.84;;;2.26;100.00
10008;BME280;5043;41.766;26.204;2023-12-20T07:28:13;101173.13;;;2.36;100.00
10008;BME280;5043;41.766;26.204;2023-12-20T07:30:39;101156.66;;;2.36;100.00
10008;BME280;5043;41.766;26.204;2023-12-20T07:33:04;101159.84;;;2.45;100.00
10008;BME280;5043;41.766;26.204;2023-12-20T07:35:30;101161.94;;;2.60;100.00
10008;BME280;5043;41.766;26.204;2023-12-20T07:37:56;101171.00;;;2.75;100.00
10008;BME280;5043;41.766;26.204;2023-12-20T07:40:23;101169.97;;;2.81;100.00
10008;BME280;5043;41.766;26.204;2023-12-20T07:42:49;101154.03;;;2.63;100.00
10008;BME280;5043;41.766;26.204;2023-12-20T07:45:15;101160.84;;;2.67;100.00
10008;BME280;5043;41.766;26.204;2023-12-20T07:47:40;101161.22;;;2.83;100.00
10008;BME280;5043;41.766;26.204;2023-12-20T07:50:06;101153.72;;;2.99;100.00
10008;BME280;5043;41.766;26.204;2023-12-20T07:52:32;101152.31;;;3.15;100.00
10008;BME280;5043;41.766;26.204;2023-12-20T07:54:57;101150.28;;;3.23;100.00
10008;BME280;5043;41.766;26.204;2023-12-20T07:57:23;101154.44;;;3.28;100.00
10008;BME280;5043;41.766;26.204;2023-12-20T07:59:49;101151.88;;;3.52;100.00
10008;BME280;5043;41.766;26.204;2023-12-20T08:02:15;101159.06;;;3.68;100.00
10008;BME280;5043;41.766;26.204;2023-12-20T08:04:40;101147.03;;;3.89;100.00
10008;BME280;5043;41.766;26.204;2023-12-20T08:07:06;101142.66;;;4.12;100.00
10008;BME280;5043;41.766;26.204;2023-12-20T08:09:32;101145.06;;;4.17;100.00
10008;BME280;5043;41.766;26.204;2023-12-20T08:11:59;101116.19;;;4.22;100.00
10008;BME280;5043;41.766;26.204;2023-12-20T08:14:25;101150.38;;;4.59;100.00
10008;BME280;5043;41.766;26.204;2023-12-20T08:16:50;101146.88;;;4.80;100.00
10008;BME280;5043;41.766;26.204;2023-12-20T08:19:16;101125.78;;;5.05;100.00
10008;BME280;5043;41.766;26.204;2023-12-20T08:21:42;101139.09;;;5.20;100.00
10008;BME280;5043;41.766;26.204;2023-12-20T08:24:08;101133.63;;;5.45;100.00
10008;BME280;5043;41.766;26.204;2023-12-20T08:26:33;101123.09;;;5.65;99.75
10008;BME280;5043;41.766;26.204;2023-12-20T08:28:59;101106.59;;;5.83;98.89
10008;BME280;5043;41.766;26.204;2023-12-20T08:31:24;101104.34;;;6.13;98.15
10008;BME280;5043;41.766;26.204;2023-12-20T08:33:51;101099.38;;;6.26;96.79
10008;BME280;5043;41.766;26.204;2023-12-20T08:36:19;101097.09;;;6.37;96.01
10008;BME280;5043;41.766;26.204;2023-12-20T08:38:47;101113.25;;;6.63;94.66
10008;BME280;5043;41.766;26.204;2023-12-20T08:41:12;101100.69;;;6.70;94.48
10008;BME280;5043;41.766;26.204;2023-12-20T08:43:38;101080.03;;;6.81;94.12
10008;BME280;5043;41.766;26.204;2023-12-20T08:46:07;101091.34;;;7.16;93.46
10008;BME280;5043;41.766;26.204;2023-12-20T08:48:35;101090.75;;;7.43;92.65
10008;BME280;5043;41.766;26.204;2023-12-20T08:51:00;101091.16;;;7.69;90.45
10008;BME280;5043;41.766;26.204;2023-12-20T08:53:26;101081.41;;;7.86;89.08
10008;BME280;5043;41.766;26.204;2023-12-20T08:55:52;101081.50;;;7.85;89.79
10008;BME280;5043;41.766;26.204;2023-12-20T08:58:18;101066.69;;;7.84;90.59
10008;BME280;5043;41.766;26.204;2023-12-20T09:00:43;101063.69;;;8.21;90.52
10008;BME280;5043;41.766;26.204;2023-12-20T09:03:09;101052.16;;;8.23;90.62
10008;BME280;5043;41.766;26.204;2023-12-20T09:05:35;101050.50;;;8.38;91.20
10008;BME280;5043;41.766;26.204;2023-12-20T09:08:00;101047.44;;;8.46;90.88
10008;BME280;5043;41.766;26.204;2023-12-20T09:10:26;101037.13;;;8.57;90.52
10008;BME280;5043;41.766;26.204;2023-12-20T09:12:52;101037.56;;;8.79;90.33
10008;BME280;5043;41.766;26.204;2023-12-20T09:15:26;101026.97;;;8.94;89.61
10008;BME280;5043;41.766;26.204;2023-12-20T09:17:53;101008.28;;;9.13;88.16
10008;BME280;5043;41.766;26.204;2023-12-20T09:20:19;101021.53;;;9.54;88.06
10008;BME280;5043;41.766;26.204;2023-12-20T09:22:45;101010.09;;;10.22;85.29
10008;BME280;5043;41.766;26.204;2023-12-20T09:25:12;101018.22;;;11.59;78.84
10008;BME280;5043;41.766;26.204;2023-12-20T09:27:40;101026.47;;;12.51;69.93
10008;BME280;5043;41.766;26.204;2023-12-20T09:30:07;101010.13;;;13.69;61.92
10008;BME280;5043;41.766;26.204;2023-12-20T09:32:32;100989.31;;;14.71;54.66
10008;BME280;5043;41.766;26.204;2023-12-20T09:34:58;100994.25;;;16.35;48.37
10008;BME280;5043;41.766;26.204;2023-12-20T09:37:26;100971.44;;;17.54;43.57
10008;BME280;5043;41.766;26.204;2023-12-20T09:39:53;100962.31;;;18.54;40.92
10008;BME280;5043;41.766;26.204;2023-12-20T09:42:25;100958.28;;;18.76;39.93
10008;BME280;5043;41.766;26.204;2023-12-20T09:44:55;100949.09;;;19.04;38.70
10008;BME280;5043;41.766;26.204;2023-12-20T09:47:22;100938.03;;;19.25;38.45
10008;BME280;5043;41.766;26.204;2023-12-20T09:49:50;100940.34;;;19.53;37.55
10008;BME280;5043;41.766;26.204;2023-12-20T09:52:18;100930.81;;;20.41;35.99
10008;BME280;5043;41.766;26.204;2023-12-20T09:54:44;100905.09;;;20.87;35.02
10008;BME280;5043;41.766;26.204;2023-12-20T09:57:11;100908.56;;;21.89;33.39
10008;BME280;5043;41.766;26.204;2023-12-20T09:59:36;100905.56;;;22.07;32.91
10008;BME280;5043;41.766;26.204;2023-12-20T10:02:03;100896.75;;;22.35;32.03
10008;BME280;5043;41.766;26.204;2023-12-20T10:04:34;100890.25;;;22.30;32.31
10008;BME280;5043;41.766;26.204;2023-12-20T10:07:03;100878.41;;;22.62;31.87
10008;BME280;5043;41.766;26.204;2023-12-20T10:09:31;100887.41;;;22.31;32.08
10008;BME280;5043;41.766;26.204;2023-12-20T10:11:57;100885.28;;;22.79;31.74
10008;BME280;5043;41.766;26.204;2023-12-20T10:14:23;100886.34;;;23.28;31.38
10008;BME280;5043;41.766;26.204;2023-12-20T10:16:49;100878.50;;;24.40;29.94
10008;BME280;5043;41.766;26.204;2023-12-20T10:19:19;100865.09;;;24.26;29.90
10008;BME280;5043;41.766;26.204;2023-12-20T10:21:45;100871.84;;;24.98;29.35
10008;BME280;5043;41.766;26.204;2023-12-20T10:24:17;100870.22;;;24.21;30.10
10008;BME280;5043;41.766;26.204;2023-12-20T10:26:43;100863.34;;;24.18;30.04
10008;BME280;5043;41.766;26.204;2023-12-20T10:29:09;100853.78;;;24.16;30.05
10008;BME280;5043;41.766;26.204;2023-12-20T10:31:36;100858.38;;;24.71;29.64
10008;BME280;5043;41.766;26.204;2023-12-20T10:34:02;100853.34;;;25.43;28.34
10008;BME280;5043;41.766;26.204;2023-12-20T10:36:30;100845.38;;;26.54;26.90
10008;BME280;5043;41.766;26.204;2023-12-20T10:38:57;100831.25;;;27.22;26.12
10008;BME280;5043;41.766;26.204;2023-12-20T10:41:28;100834.66;;;27.05;26.25
10008;BME280;5043;41.766;26.204;2023-12-20T10:44:04;100826.13;;;27.52;25.55
10008;BME280;5043;41.766;26.204;2023-12-20T10:46:34;100809.50;;;28.05;24.38
10008;BME280;5043;41.766;26.204;2023-12-20T10:49:02;100802.25;;;28.66;23.85
10008;BME280;5043;41.766;26.204;2023-12-20T10:51:28;100791.03;;;28.81;23.80
10008;BME280;5043;41.766;26.204;2023-12-20T10:53:57;100789.94;;;28.21;23.62
10008;BME280;5043;41.766;26.204;2023-12-20T10:56:23;100797.66;;;28.42;23.48
10008;BME280;5043;41.766;26.204;2023-12-20T10:58:49;100794.94;;;28.24;23.70
10008;BME280;5043;41.766;26.204;2023-12-20T11:01:19;100794.41;;;28.76;23.30
10008;BME280;5043;41.766;26.204;2023-12-20T11:03:54;100784.91;;;28.85;23.21
10008;BME280;5043;41.766;26.204;2023-12-20T11:06:33;100791.22;;;28.79;23.36
10008;BME280;5043;41.766;26.204;2023-12-20T11:09:31;100782.25;;;28.60;23.29
10008;BME280;5043;41.766;26.204;2023-12-20T11:17:09;100773.22;;;28.42;23.66
10008;BME280;5043;41.766;26.204;2023-12-20T11:22:24;100761.59;;;28.35;23.58
10008;BME280;5043;41.766;26.204;2023-12-20T11:24:51;100766.66;;;28.13;23.96
10008;BME280;5043;41.766;26.204;2023-12-20T11:27:18;100765.84;;;27.81;24.63
10008;BME280;5043;41.766;26.204;2023-12-20T11:29:58;100764.38;;;27.54;24.55
10008;BME280;5043;41.766;26.204;2023-12-20T11:34:59;100760.50;;;25.83;27.00
10008;BME280;5043;41.766;26.204;2023-12-20T11:37:30;100738.75;;;25.11;27.72
10008;BME280;5043;41.766;26.204;2023-12-20T11:40:05;100735.72;;;24.45;28.79
10008;BME280;5043;41.766;26.204;2023-12-20T11:42:38;100729.63;;;24.03;29.55
10008;BME280;5043;41.766;26.204;2023-12-20T11:45:05;100732.16;;;23.55;29.72
10008;BME280;5043;41.766;26.204;2023-12-20T11:47:31;100718.97;;;23.24;30.87
10008;BME280;5043;41.766;26.204;2023-12-20T11:49:57;100720.50;;;22.77;31.50
10008;BME280;5043;41.766;26.204;2023-12-20T11:52:23;100712.84;;;22.95;31.18
10008;BME280;5043;41.766;26.204;2023-12-20T11:54:48;100697.72;;;22.14;32.46
10008;BME280;5043;41.766;26.204;2023-12-20T11:57:14;100698.59;;;21.55;33.24
10008;BME280;5043;41.766;26.204;2023-12-20T11:59:39;100693.03;;;20.88;34.49
10008;BME280;5043;41.766;26.204;2023-12-20T12:02:05;100677.59;;;21.21;34.20
10008;BME280;5043;41.766;26.204;2023-12-20T12:04:31;100685.56;;;21.52;33.79
10008;BME280;5043;41.766;26.204;2023-12-20T12:06:56;100687.44;;;22.03;33.10
10008;BME280;5043;41.766;26.204;2023-12-20T12:09:22;100712.56;;;23.25;31.25
10008;BME280;5043;41.766;26.204;2023-12-20T12:11:47;100660.13;;;23.70;30.40
10008;BME280;5043;41.766;26.204;2023-12-20T12:14:14;100676.94;;;24.00;30.13
10008;BME280;5043;41.766;26.204;2023-12-20T12:16:41;100673.84;;;23.75;30.34
10008;BME280;5043;41.766;26.204;2023-12-20T12:19:07;100677.13;;;22.86;31.54
10008;BME280;5043;41.766;26.204;2023-12-20T12:21:44;100666.91;;;21.87;33.12
10008;BME280;5043;41.766;26.204;2023-12-20T12:24:10;100666.88;;;20.60;35.30
10008;BME280;5043;41.766;26.204;2023-12-20T12:26:36;100641.88;;;19.73;36.95
10008;BME280;5043;41.766;26.204;2023-12-20T12:29:01;100656.59;;;19.21;38.44
10008;BME280;5043;41.766;26.204;2023-12-20T12:31:27;100649.00;;;18.52;39.72
10008;BME280;5043;41.766;26.204;2023-12-20T12:33:53;100648.28;;;17.82;41.71
10008;BME280;5043;41.766;26.204;2023-12-20T12:36:19;100648.16;;;17.41;43.48
10008;BME280;5043;41.766;26.204;2023-12-20T12:38:44;100646.28;;;16.80;45.61
10008;BME280;5043;41.766;26.204;2023-12-20T12:41:12;100640.25;;;16.33;48.69
10008;BME280;5043;41.766;26.204;2023-12-20T12:43:38;100638.38;;;15.89;52.10
10008;BME280;5043;41.766;26.204;2023-12-20T12:46:03;100648.81;;;15.54;54.82
10008;BME280;5043;41.766;26.204;2023-12-20T12:48:29;100624.50;;;15.01;59.38
10008;BME280;5043;41.766;26.204;2023-12-20T12:50:55;100648.41;;;14.82;62.05
10008;BME280;5043;41.766;26.204;2023-12-20T12:53:24;100621.84;;;14.53;64.65
10008;BME280;5043;41.766;26.204;2023-12-20T12:55:50;100641.22;;;14.54;65.71